Time;durP1;ratioP1;P1;durP2;ratioP2;P2;SDS_P1;SDS_P2;PMS_P1;PMS_P2;Temp;Humidity;BMP_temperature;BMP_pressure;BME280_temperature;BME280_humidity;BME280_pressure;Samples;Min_cycle;Max_cycle;Signal;HPM_P1;HPM_P2
2023/01/27 00:00:20;;;;;;;11.63;2.65;;;;;;;4.23;100.00;103152.19;5015690;28;20419;-80
2023/01/27 00:02:46;;;;;;;5.93;2.40;;;;;;;4.26;100.00;103138.72;5015976;28;20040;-81
2023/01/27 00:05:14;;;;;;;6.20;2.13;;;;;;;4.29;100.00;103143.03;5015839;28;20037;-80
2023/01/27 00:07:44;;;;;;;4.53;1.92;;;;;;;4.33;100.00;103125.97;4999459;28;20033;-81
2023/01/27 00:10:15;;;;;;;9.68;2.20;;;;;;;4.38;100.00;103127.44;5016011;28;20409;-81
2023/01/27 00:15:27;;;;;;;8.73;2.20;;;;;;;4.36;100.00;103108.00;5001904;28;20052;-81
2023/01/27 00:17:53;;;;;;;16.98;2.88;;;;;;;4.37;100.00;103106.22;4999166;28;20060;-79
2023/01/27 00:26:18;;;;;;;5.57;1.80;;;;;;;4.03;100.00;103094.59;5016258;28;20030;-79
2023/01/27 00:28:51;;;;;;;3.75;1.55;;;;;;;3.93;100.00;103072.88;4999827;28;20053;-79
2023/01/27 00:34:07;;;;;;;4.70;1.70;;;;;;;4.05;100.00;103089.19;5001675;28;20037;-79
2023/01/27 00:36:35;;;;;;;8.23;1.88;;;;;;;4.04;100.00;103088.31;5015126;28;20033;-79
2023/01/27 00:39:02;;;;;;;7.57;2.10;;;;;;;3.97;100.00;103077.13;4999130;28;20092;-79
2023/01/27 00:41:27;;;;;;;11.63;3.70;;;;;;;3.97;100.00;103092.25;5014883;28;20157;-79
2023/01/27 00:43:54;;;;;;;14.18;5.07;;;;;;;3.99;100.00;103085.03;4999098;28;20423;-81
2023/01/27 00:46:21;;;;;;;4.75;2.17;;;;;;;4.02;100.00;103087.53;5013716;28;20037;-81
2023/01/27 00:48:48;;;;;;;6.43;2.72;;;;;;;4.03;100.00;103086.63;4998807;28;20036;-80
2023/01/27 00:51:13;;;;;;;7.30;2.67;;;;;;;4.17;100.00;103108.06;4998723;28;20048;-79
2023/01/27 00:53:40;;;;;;;5.72;2.30;;;;;;;4.25;100.00;103104.19;4982553;28;20053;-81
2023/01/27 00:56:06;;;;;;;5.53;2.38;;;;;;;4.24;100.00;103098.00;5014997;28;20030;-80
2023/01/27 00:58:32;;;;;;;6.97;2.75;;;;;;;4.18;100.00;103075.19;5014554;28;20056;-81
2023/01/27 01:01:01;;;;;;;7.32;3.40;;;;;;;4.15;100.00;103080.69;5014577;28;20060;-81
2023/01/27 01:03:30;;;;;;;12.85;3.13;;;;;;;4.04;100.00;103068.84;4998621;28;20038;-79
2023/01/27 01:06:04;;;;;;;4.60;2.28;;;;;;;3.97;100.00;103071.81;4998954;28;20072;-80
2023/01/27 01:08:31;;;;;;;5.78;2.35;;;;;;;4.01;100.00;103071.66;5014383;28;20026;-80
2023/01/27 01:10:57;;;;;;;8.13;2.25;;;;;;;3.95;100.00;103071.03;4998504;28;20034;-80
2023/01/27 01:13:23;;;;;;;10.23;3.20;;;;;;;3.86;100.00;103074.13;4998369;28;20092;-80
2023/01/27 01:15:49;;;;;;;7.28;2.67;;;;;;;3.72;100.00;103073.94;5014277;28;20383;-80
2023/01/27 01:18:15;;;;;;;8.82;2.60;;;;;;;3.72;100.00;103073.94;4998358;28;20033;-80
2023/01/27 01:20:43;;;;;;;8.15;2.47;;;;;;;3.56;100.00;103043.69;5014284;28;20044;-79
2023/01/27 01:23:09;;;;;;;5.38;2.03;;;;;;;3.74;100.00;103069.41;5014560;28;20506;-79
2023/01/27 01:25:36;;;;;;;13.43;4.82;;;;;;;3.78;100.00;103055.00;4981785;28;20068;-80
2023/01/27 01:28:03;;;;;;;13.15;4.43;;;;;;;3.83;100.00;103066.28;5014398;28;20418;-80
2023/01/27 01:30:29;;;;;;;11.55;3.67;;;;;;;3.88;100.00;103061.59;4998014;28;20048;-79
2023/01/27 01:32:55;;;;;;;6.53;2.80;;;;;;;3.87;100.00;103049.25;5013961;28;20022;-80
2023/01/27 01:35:24;;;;;;;13.05;4.90;;;;;;;3.97;100.00;103062.97;4997982;28;20056;-80
2023/01/27 01:37:50;;;;;;;9.70;4.38;;;;;;;3.93;100.00;103059.56;5014024;28;20046;-79
2023/01/27 01:40:16;;;;;;;10.20;4.00;;;;;;;3.86;100.00;103058.16;4997599;28;20381;-79
2023/01/27 01:42:51;;;;;;;8.10;3.83;;;;;;;3.79;100.00;103055.91;4997621;28;20029;-80
2023/01/27 01:45:44;;;;;;;11.25;3.60;;;;;;;3.69;100.00;103045.69;5030352;28;20375;-80
2023/01/27 01:48:18;;;;;;;8.40;3.03;;;;;;;3.71;100.00;103046.47;5014132;28;20537;-79
2023/01/27 01:50:50;;;;;;;8.32;3.13;;;;;;;3.61;100.00;103034.56;4982089;28;20077;-79
2023/01/27 01:53:16;;;;;;;12.65;3.22;;;;;;;3.67;100.00;103049.34;4997525;28;20461;-78
2023/01/27 01:55:42;;;;;;;10.60;3.22;;;;;;;3.70;100.00;103057.19;4997404;28;20129;-79
2023/01/27 01:58:09;;;;;;;6.43;2.70;;;;;;;3.80;100.00;103046.97;5013864;28;20121;-79
2023/01/27 02:00:35;;;;;;;7.22;2.78;;;;;;;3.89;100.00;103047.38;4997473;28;20183;-79
2023/01/27 02:03:01;;;;;;;9.25;2.78;;;;;;;3.91;100.00;103048.13;4997033;28;20470;-79
2023/01/27 02:05:29;;;;;;;5.68;2.53;;;;;;;3.95;100.00;103049.72;4981416;28;20037;-79
2023/01/27 02:08:25;;;;;;;9.55;3.08;;;;;;;4.01;100.00;103053.88;4980838;28;20041;-79
2023/01/27 02:10:53;;;;;;;12.60;3.45;;;;;;;3.97;100.00;103050.53;5006276;28;20562;-79
2023/01/27 02:13:19;;;;;;;12.02;3.28;;;;;;;3.99;100.00;103047.75;4997491;28;20088;-80
2023/01/27 02:15:45;;;;;;;7.65;3.30;;;;;;;3.99;100.00;103054.88;5013293;28;20038;-80
2023/01/27 02:18:13;;;;;;;8.43;3.20;;;;;;;3.94;100.00;103053.34;5012979;28;20037;-79
2023/01/27 02:20:59;;;;;;;8.75;3.53;;;;;;;3.92;100.00;103051.69;4997482;28;20037;-80
2023/01/27 02:23:48;;;;;;;14.75;4.35;;;;;;;3.86;100.00;103051.97;5012506;28;20038;-80
2023/01/27 02:26:27;;;;;;;8.25;3.38;;;;;;;3.95;100.00;103073.69;5012922;28;20122;-79
2023/01/27 02:28:59;;;;;;;7.78;3.65;;;;;;;4.00;100.00;103073.47;5012853;28;20369;-79
2023/01/27 02:31:25;;;;;;;11.25;4.30;;;;;;;4.03;100.00;103064.47;4980646;28;20438;-81
2023/01/27 02:33:58;;;;;;;8.43;3.80;;;;;;;3.99;100.00;103053.09;4996736;28;20053;-80
2023/01/27 02:36:26;;;;;;;11.93;3.22;;;;;;;3.88;100.00;103040.31;4997006;28;20037;-80
2023/01/27 02:38:53;;;;;;;8.93;2.30;;;;;;;4.08;100.00;103065.09;4996806;28;20133;-80
2023/01/27 02:41:27;;;;;;;7.30;2.40;;;;;;;4.18;100.00;103069.00;4996964;28;20049;-82
2023/01/27 02:43:52;;;;;;;5.15;1.58;;;;;;;4.21;100.00;103052.00;5013074;28;20594;-80
2023/01/27 02:46:18;;;;;;;5.63;2.15;;;;;;;4.13;100.00;103034.63;5012863;28;20112;-81
2023/01/27 02:48:44;;;;;;;9.23;1.80;;;;;;;4.18;100.00;103048.56;4996645;28;20048;-80
2023/01/27 02:51:10;;;;;;;6.93;2.25;;;;;;;4.18;100.00;103051.25;4996761;28;20029;-81
2023/01/27 02:53:36;;;;;;;6.72;2.10;;;;;;;4.18;100.00;103042.38;4996616;28;20463;-81
2023/01/27 02:56:01;;;;;;;5.53;1.73;;;;;;;4.25;100.00;103059.75;4996700;28;20037;-81
2023/01/27 02:58:27;;;;;;;8.15;2.40;;;;;;;4.26;100.00;103048.19;4996598;28;20045;-81
2023/01/27 03:00:53;;;;;;;9.15;2.08;;;;;;;4.25;100.00;103040.25;4996824;28;20034;-81
2023/01/27 03:03:19;;;;;;;7.05;1.73;;;;;;;4.31;100.00;103040.81;5012332;28;20030;-80
2023/01/27 03:05:45;;;;;;;4.88;1.80;;;;;;;4.14;100.00;103001.72;5012217;28;20084;-79
2023/01/27 03:08:11;;;;;;;6.60;2.80;;;;;;;4.30;100.00;103025.75;4980332;28;20033;-80
2023/01/27 03:10:36;;;;;;;1.75;1.08;;;;;;;4.37;100.00;103034.31;5012098;28;20034;-80
2023/01/27 03:13:03;;;;;;;3.53;1.33;;;;;;;4.47;100.00;103043.53;5012668;28;20506;-80
2023/01/27 03:18:14;;;;;;;0.65;0.65;;;;;;;4.62;98.74;103023.22;4998991;28;20100;-79
2023/01/27 03:20:43;;;;;;;5.25;1.45;;;;;;;4.67;97.13;103022.97;5012576;28;20038;-81
2023/01/27 03:23:10;;;;;;;3.92;1.27;;;;;;;4.72;97.21;103024.44;4996436;28;20044;-80
2023/01/27 03:25:39;;;;;;;4.47;1.45;;;;;;;4.77;96.27;103021.56;4996198;28;20081;-80
2023/01/27 03:28:04;;;;;;;1.27;1.00;;;;;;;4.79;95.24;103022.31;5012587;28;20041;-81
2023/01/27 03:30:30;;;;;;;1.75;1.15;;;;;;;4.78;94.56;103008.13;4996198;28;20030;-81
2023/01/27 03:32:56;;;;;;;6.55;2.08;;;;;;;4.77;94.05;103001.09;4996212;28;20038;-81
2023/01/27 03:35:33;;;;;;;5.25;1.60;;;;;;;4.73;94.02;103001.31;4996147;28;20042;-81
2023/01/27 03:46:19;;;;;;;4.57;1.10;;;;;;;4.79;92.13;102995.66;4998519;28;20022;-80
2023/01/27 03:48:50;;;;;;;5.40;1.00;;;;;;;4.87;91.22;102995.25;4996959;28;20084;-80
2023/01/27 03:51:17;;;;;;;2.72;1.30;;;;;;;4.88;90.55;103000.50;5012211;28;20030;-79
2023/01/27 03:53:43;;;;;;;4.45;2.35;;;;;;;4.82;90.67;102991.03;5012025;28;20084;-79
2023/01/27 03:56:10;;;;;;;4.82;1.75;;;;;;;4.75;91.21;102989.63;4996005;28;20053;-80
2023/01/27 03:58:40;;;;;;;3.97;1.85;;;;;;;4.65;92.40;102979.56;4996189;28;20061;-80
2023/01/27 04:01:11;;;;;;;6.45;1.80;;;;;;;4.58;92.61;102977.22;4979904;28;20162;-80
2023/01/27 04:09:09;;;;;;;2.78;1.10;;;;;;;4.41;95.31;102975.44;4998527;28;20037;-80
2023/01/27 04:14:26;;;;;;;4.82;1.30;;;;;;;4.36;96.20;102974.84;4998291;28;20026;-79
2023/01/27 04:16:54;;;;;;;4.18;1.20;;;;;;;4.29;96.75;102976.13;5011990;28;20088;-80
2023/01/27 04:19:19;;;;;;;3.78;1.30;;;;;;;4.19;97.76;102970.41;4979590;28;20034;-80
2023/01/27 04:21:46;;;;;;;2.60;1.40;;;;;;;4.18;98.40;102970.47;4997187;28;20396;-81
2023/01/27 04:24:24;;;;;;;4.47;1.20;;;;;;;4.16;99.07;102959.06;4999651;28;20141;-81
2023/01/27 04:26:56;;;;;;;3.00;0.98;;;;;;;4.22;100.00;102968.53;5000735;28;20025;-80
2023/01/27 04:29:25;;;;;;;3.40;1.13;;;;;;;4.15;100.00;102959.97;5015179;28;20045;-79
2023/01/27 04:31:51;;;;;;;2.33;1.33;;;;;;;4.21;100.00;102975.66;4999011;28;20549;-79
2023/01/27 04:34:17;;;;;;;3.78;0.95;;;;;;;4.15;100.00;102967.97;4983091;28;20140;-79
2023/01/27 04:36:43;;;;;;;1.23;1.02;;;;;;;4.04;100.00;102954.38;4998686;28;20088;-80
2023/01/27 04:39:10;;;;;;;2.30;1.40;;;;;;;4.11;100.00;102971.75;5015040;28;20456;-80
2023/01/27 04:41:36;;;;;;;2.72;0.90;;;;;;;4.17;100.00;102976.75;4998928;28;20034;-80
2023/01/27 04:44:03;;;;;;;2.85;1.13;;;;;;;4.12;100.00;102976.13;5015189;28;20069;-79
2023/01/27 04:46:30;;;;;;;3.38;1.45;;;;;;;4.12;100.00;102976.13;5014691;28;20434;-79
2023/01/27 04:48:56;;;;;;;4.22;1.10;;;;;;;4.13;100.00;102970.72;4998902;28;20034;-80
2023/01/27 04:51:21;;;;;;;4.38;1.40;;;;;;;4.13;100.00;102969.88;4998393;28;20032;-79
2023/01/27 04:53:47;;;;;;;2.13;1.10;;;;;;;4.11;100.00;102972.59;4998876;28;20034;-79
2023/01/27 04:56:31;;;;;;;1.58;1.20;;;;;;;3.97;100.00;102954.69;4998867;28;20498;-79
2023/01/27 04:58:58;;;;;;;4.47;1.48;;;;;;;4.01;100.00;102970.50;5015082;28;20036;-80
2023/01/27 05:01:24;;;;;;;3.50;1.85;;;;;;;4.04;100.00;102970.34;5014446;28;20092;-80
2023/01/27 05:03:50;;;;;;;4.55;1.30;;;;;;;4.03;100.00;102957.97;5014594;28;20022;-79
2023/01/27 05:06:16;;;;;;;6.55;1.63;;;;;;;3.93;100.00;102953.09;4998417;28;20034;-79
2023/01/27 05:08:42;;;;;;;3.15;1.50;;;;;;;4.02;100.00;102956.22;4982398;28;20057;-79
2023/01/27 05:11:08;;;;;;;2.35;1.20;;;;;;;3.96;100.00;102954.75;4998483;28;20049;-79
2023/01/27 05:13:34;;;;;;;2.97;1.38;;;;;;;3.99;100.00;102959.06;4998519;28;20076;-80
2023/01/27 05:16:15;;;;;;;3.10;1.23;;;;;;;3.92;100.00;102946.06;5014581;28;20034;-80
2023/01/27 05:18:42;;;;;;;3.08;1.13;;;;;;;4.02;100.00;102965.06;5014731;28;20129;-80
2023/01/27 05:21:11;;;;;;;3.88;1.40;;;;;;;3.96;100.00;102947.63;4998333;28;20046;-80
2023/01/27 05:23:37;;;;;;;4.90;1.65;;;;;;;4.02;100.00;102956.22;5014619;28;20042;-80
2023/01/27 05:26:10;;;;;;;4.07;1.17;;;;;;;3.99;100.00;102951.06;5013941;28;20033;-79
2023/01/27 05:28:37;;;;;;;3.83;1.35;;;;;;;3.96;100.00;102952.94;5014290;28;20061;-80
2023/01/27 05:31:09;;;;;;;4.90;1.33;;;;;;;3.96;100.00;102947.63;5013888;28;20041;-79
2023/01/27 05:33:34;;;;;;;4.45;1.42;;;;;;;3.90;100.00;102934.63;5014023;28;20038;-79
2023/01/27 05:36:02;;;;;;;5.45;1.20;;;;;;;3.97;100.00;102951.16;5014160;28;20084;-79
2023/01/27 05:38:28;;;;;;;5.68;1.42;;;;;;;3.90;100.00;102947.09;4997951;28;20034;-80
2023/01/27 05:41:00;;;;;;;4.00;1.52;;;;;;;3.83;100.00;102945.69;4997860;28;20037;-79
2023/01/27 05:43:30;;;;;;;4.20;1.20;;;;;;;3.78;100.00;102940.56;5013912;28;20026;-79
2023/01/27 05:46:06;;;;;;;1.70;1.20;;;;;;;3.52;100.00;102902.03;4997907;28;20486;-79
2023/01/27 05:48:37;;;;;;;2.80;1.27;;;;;;;3.72;100.00;102938.25;4997711;28;20061;-80
2023/01/27 05:51:04;;;;;;;3.85;1.63;;;;;;;3.76;100.00;102950.47;4997967;28;20038;-79
2023/01/27 05:53:30;;;;;;;1.90;1.15;;;;;;;3.71;100.00;102953.34;5013845;28;20033;-79
2023/01/27 05:55:56;;;;;;;4.00;1.27;;;;;;;3.71;100.00;102953.34;4997351;28;20384;-79
2023/01/27 05:58:22;;;;;;;2.75;1.33;;;;;;;3.73;100.00;102950.59;4997642;28;20037;-79
2023/01/27 06:00:48;;;;;;;4.40;1.27;;;;;;;3.72;100.00;102947.06;5013555;28;20030;-79
2023/01/27 06:03:14;;;;;;;2.80;1.25;;;;;;;3.74;100.00;102952.34;4997619;28;20364;-79
2023/01/27 06:05:51;;;;;;;4.15;1.55;;;;;;;3.75;100.00;102948.72;4981182;28;20049;-79
2023/01/27 06:08:17;;;;;;;5.55;1.52;;;;;;;3.72;100.00;102940.91;5013717;28;20045;-79
2023/01/27 06:10:43;;;;;;;4.38;1.73;;;;;;;3.76;100.00;102947.81;4997153;28;20033;-79
2023/01/27 06:13:08;;;;;;;6.57;2.00;;;;;;;3.74;100.00;102936.38;4981307;28;20065;-79
2023/01/27 06:15:34;;;;;;;2.95;1.20;;;;;;;3.77;100.00;102944.19;4997040;28;20495;-79
2023/01/27 06:18:00;;;;;;;1.88;1.17;;;;;;;3.79;100.00;102944.13;4997102;28;20037;-79
2023/01/27 06:20:25;;;;;;;3.38;1.20;;;;;;;3.79;100.00;102937.00;4980727;28;20041;-79
2023/01/27 06:22:51;;;;;;;2.33;1.25;;;;;;;3.74;100.00;102928.38;5013600;28;20032;-79
2023/01/27 06:25:17;;;;;;;8.68;1.95;;;;;;;3.72;100.00;102928.44;5013262;28;20038;-79
2023/01/27 06:27:45;;;;;;;2.03;1.27;;;;;;;3.73;100.00;102927.53;4996887;28;20026;-79
2023/01/27 06:30:11;;;;;;;7.85;1.50;;;;;;;3.71;100.00;102924.09;4996964;28;20029;-78
2023/01/27 06:32:36;;;;;;;2.50;1.35;;;;;;;3.66;100.00;102914.63;4980482;28;20482;-79
2023/01/27 06:35:02;;;;;;;2.70;1.27;;;;;;;3.66;100.00;102927.91;5014352;28;20113;-80
2023/01/27 06:37:31;;;;;;;4.90;1.55;;;;;;;3.72;100.00;102931.13;4996590;28;20037;-78
2023/01/27 06:39:56;;;;;;;2.45;1.33;;;;;;;3.69;100.00;102925.94;4997262;28;20045;-79
2023/01/27 06:42:22;;;;;;;6.25;1.48;;;;;;;3.66;100.00;102931.44;5029494;28;20030;-78
2023/01/27 06:44:48;;;;;;;4.63;1.30;;;;;;;3.64;100.00;102935.09;4996167;28;20034;-78
2023/01/27 06:47:14;;;;;;;4.22;1.67;;;;;;;3.58;100.00;102930.09;5012870;28;20037;-80
2023/01/27 06:49:39;;;;;;;6.57;1.70;;;;;;;3.58;100.00;102935.44;5013912;28;20390;-78
2023/01/27 06:52:05;;;;;;;4.45;1.60;;;;;;;3.55;100.00;102932.91;4996601;28;20038;-79
2023/01/27 06:54:31;;;;;;;3.95;1.35;;;;;;;3.55;100.00;102932.91;5012957;28;20121;-79
2023/01/27 06:56:57;;;;;;;5.30;1.52;;;;;;;3.38;100.00;102901.84;5013715;28;20034;-79
2023/01/27 06:59:23;;;;;;;5.80;1.40;;;;;;;3.48;100.00;102922.56;4980485;28;20049;-79
2023/01/27 07:01:48;;;;;;;3.47;1.30;;;;;;;3.38;100.00;102912.47;4996748;28;20084;-79
2023/01/27 07:04:14;;;;;;;8.23;1.48;;;;;;;3.37;100.00;102916.94;4980317;28;20519;-79
2023/01/27 07:06:40;;;;;;;3.03;1.45;;;;;;;3.29;100.00;102909.34;4996490;28;20030;-79
2023/01/27 07:09:06;;;;;;;4.68;1.40;;;;;;;3.26;100.00;102917.47;5012547;28;20124;-78
2023/01/27 07:11:31;;;;;;;5.15;1.50;;;;;;;3.23;100.00;102914.09;5012417;28;20110;-79
2023/01/27 07:13:57;;;;;;;3.72;1.95;;;;;;;3.27;100.00;102915.66;4980070;28;20372;-79
2023/01/27 07:16:23;;;;;;;2.25;1.30;;;;;;;3.14;100.00;102910.06;5012371;28;20364;-79
2023/01/27 07:18:49;;;;;;;4.22;1.38;;;;;;;3.14;100.00;102902.09;4995712;28;20100;-78
2023/01/27 07:21:15;;;;;;;27.98;12.38;;;;;;;3.18;100.00;102910.81;4996183;28;20025;-79
2023/01/27 07:23:40;;;;;;;17.50;6.72;;;;;;;3.13;100.00;102904.84;4996389;28;20033;-79
2023/01/27 07:26:06;;;;;;;14.30;5.47;;;;;;;3.18;100.00;102916.97;4995822;28;20030;-78
2023/01/27 07:28:32;;;;;;;5.60;2.15;;;;;;;3.15;100.00;102910.94;5011967;28;20038;-78
2023/01/27 07:31:01;;;;;;;4.35;1.73;;;;;;;3.11;100.00;102918.22;5013467;28;20060;-78
2023/01/27 07:33:27;;;;;;;4.05;1.70;;;;;;;3.00;100.00;102918.72;4979900;28;20092;-79
2023/01/27 07:35:54;;;;;;;6.50;2.25;;;;;;;2.95;100.00;102920.75;5012097;28;20439;-79
2023/01/27 07:38:20;;;;;;;6.03;4.00;;;;;;;2.92;100.00;102914.72;5012355;28;20099;-78
2023/01/27 07:40:45;;;;;;;7.25;2.40;;;;;;;2.98;100.00;102920.59;4996291;28;20042;-79
2023/01/27 07:43:11;;;;;;;4.70;2.42;;;;;;;2.99;100.00;102917.00;4979922;28;20384;-81
2023/01/27 07:45:37;;;;;;;15.30;5.65;;;;;;;3.01;100.00;102914.25;4995973;28;20030;-79
2023/01/27 07:48:07;;;;;;;9.25;4.25;;;;;;;3.01;100.00;102917.78;5012353;28;20038;-78
2023/01/27 07:50:34;;;;;;;10.57;4.40;;;;;;;2.99;100.00;102919.66;4996093;28;20068;-80
2023/01/27 07:53:01;;;;;;;8.35;3.00;;;;;;;2.96;100.00;102926.91;4979931;28;20041;-81
2023/01/27 07:55:27;;;;;;;7.10;2.67;;;;;;;2.96;100.00;102927.75;5012623;28;20160;-78
2023/01/27 07:57:53;;;;;;;12.75;4.18;;;;;;;2.96;100.00;102919.78;5015592;28;20037;-79
2023/01/27 08:00:23;;;;;;;5.88;2.70;;;;;;;3.01;100.00;102925.75;4983178;28;20046;-80
2023/01/27 08:02:53;;;;;;;7.78;2.70;;;;;;;2.69;100.00;102886.56;5016148;28;20041;-80
2023/01/27 08:05:22;;;;;;;7.22;2.95;;;;;;;2.97;100.00;102948.09;4998577;28;20068;-79
2023/01/27 08:07:49;;;;;;;5.90;2.53;;;;;;;2.99;100.00;102948.03;5013679;28;20109;-80
2023/01/27 08:10:21;;;;;;;6.78;3.00;;;;;;;3.01;100.00;102946.16;5013726;28;20668;-78
2023/01/27 08:12:47;;;;;;;5.15;2.95;;;;;;;3.01;100.00;102946.16;4981713;28;20038;-79
2023/01/27 08:15:14;;;;;;;6.85;3.45;;;;;;;3.05;100.00;102942.44;5013389;28;20415;-79
2023/01/27 08:17:56;;;;;;;8.57;2.93;;;;;;;3.05;100.00;102940.63;4998405;28;20068;-81
2023/01/27 08:20:23;;;;;;;4.20;2.30;;;;;;;3.12;100.00;102948.31;4997216;28;20282;-79
2023/01/27 08:22:49;;;;;;;5.35;3.03;;;;;;;3.12;100.00;102956.28;4982230;28;20045;-79
2023/01/27 08:25:15;;;;;;;5.53;1.73;;;;;;;2.95;100.00;102934.03;5015069;28;20026;-78
2023/01/27 08:27:43;;;;;;;4.80;1.90;;;;;;;3.09;100.00;102947.50;4998518;28;20187;-82
2023/01/27 08:30:12;;;;;;;7.13;2.20;;;;;;;3.06;100.00;102945.00;5015425;28;20069;-79
2023/01/27 08:33:37;;;;;;;4.65;2.08;;;;;;;3.09;100.00;102954.63;5016420;28;20026;-81
2023/01/27 08:37:09;;;;;;;;;;;;;;;;;;;;;
2023/01/27 08:40:29;;;;;;;;;;;;;;;;;;;;;
2023/01/27 08:43:26;;;;;;;4.93;2.03;;;;;;;2.76;100.00;102885.34;5001943;28;20084;-81
2023/01/27 08:45:59;;;;;;;8.05;2.92;;;;;;;2.90;100.00;102890.88;5013126;28;20057;-79
2023/01/27 08:48:28;;;;;;;8.25;2.92;;;;;;;3.03;100.00;102902.63;4997852;28;20053;-80
2023/01/27 08:50:55;;;;;;;10.70;2.85;;;;;;;3.33;100.00;102941.94;5014880;28;20467;-80
2023/01/27 08:53:21;;;;;;;11.32;3.00;;;;;;;3.34;100.00;102937.50;5014399;28;20045;-79
2023/01/27 08:55:47;;;;;;;8.00;2.95;;;;;;;3.55;100.00;102956.84;5014767;28;20038;-83
2023/01/27 08:58:14;;;;;;;6.75;3.17;;;;;;;3.60;100.00;102944.16;4982432;28;20048;-79
2023/01/27 09:00:41;;;;;;;13.50;4.00;;;;;;;3.64;100.00;102943.94;5014692;28;20033;-84
2023/01/27 09:03:07;;;;;;;15.48;4.13;;;;;;;3.68;100.00;102944.69;4982536;28;20045;-84
2023/01/27 09:05:35;;;;;;;5.68;3.30;;;;;;;3.60;100.00;102922.88;5016682;28;20026;-84
2023/01/27 09:08:01;;;;;;;6.97;2.88;;;;;;;3.82;100.00;102936.84;5001262;28;20033;-84
2023/01/27 09:10:28;;;;;;;8.30;3.28;;;;;;;3.90;100.00;102942.63;5019979;28;20435;-84
2023/01/27 09:12:53;;;;;;;7.28;3.42;;;;;;;3.90;100.00;102936.44;5002143;28;20060;-84
2023/01/27 09:15:20;;;;;;;7.20;3.83;;;;;;;3.89;100.00;102930.28;5017957;28;20045;-84
2023/01/27 09:17:46;;;;;;;8.80;4.05;;;;;;;3.88;100.00;102928.53;5016624;28;20080;-84
2023/01/27 09:20:12;;;;;;;7.70;3.42;;;;;;;3.97;100.00;102945.84;5017538;28;20026;-84
2023/01/27 09:22:40;;;;;;;9.73;4.65;;;;;;;4.01;100.00;102949.19;5018204;28;20084;-84
2023/01/27 09:25:08;;;;;;;7.65;3.65;;;;;;;4.04;100.00;102949.03;5015721;28;20040;-84
2023/01/27 09:27:34;;;;;;;9.07;4.40;;;;;;;4.11;100.00;102938.00;4999328;28;20069;-84
2023/01/27 09:30:00;;;;;;;10.88;5.03;;;;;;;4.17;100.00;102931.47;4999082;28;20068;-85
2023/01/27 09:32:27;;;;;;;12.70;4.72;;;;;;;4.30;100.00;102935.22;4999731;28;20077;-84
2023/01/27 09:34:53;;;;;;;8.05;4.53;;;;;;;4.34;100.00;102923.47;5016751;28;20026;-84
2023/01/27 09:37:19;;;;;;;9.43;4.80;;;;;;;4.49;100.00;102932.41;5015828;28;20038;-83
2023/01/27 09:39:54;;;;;;;16.25;9.40;;;;;;;4.64;100.00;102933.41;4998521;28;20088;-84
2023/01/27 09:43:00;;;;;;;16.27;7.38;;;;;;;4.75;100.00;102932.81;5010029;28;20034;-84
2023/01/27 09:45:44;;;;;;;21.60;10.65;;;;;;;4.60;100.00;102890.09;4985244;28;20120;-84
2023/01/27 09:48:34;;;;;;;26.60;12.55;;;;;;;4.96;100.00;102938.75;5013809;28;20034;-85
2023/01/27 09:51:42;;;;;;;32.95;16.10;;;;;;;5.08;100.00;102935.41;4997487;28;20501;-83
2023/01/27 09:54:22;;;;;;;24.60;12.18;;;;;;;5.19;100.00;102943.66;4991636;28;20041;-83
2023/01/27 09:56:59;;;;;;;14.43;7.60;;;;;;;5.09;100.00;102922.94;5014003;28;20038;-83
2023/01/27 10:00:01;;;;;;;18.70;8.95;;;;;;;5.30;100.00;102945.72;5013694;28;20112;-83
2023/01/27 10:02:39;;;;;;;22.70;10.80;;;;;;;5.44;100.00;102955.59;5014367;28;20046;-84
2023/01/27 10:05:26;;;;;;;25.42;11.95;;;;;;;5.52;100.00;102948.00;5013804;28;20049;-83
2023/01/27 10:08:19;;;;;;;18.92;9.52;;;;;;;5.59;100.00;102936.03;5014512;28;20034;-83
2023/01/27 10:10:51;;;;;;;15.88;8.32;;;;;;;5.76;100.00;102951.03;4995511;28;20038;-83
2023/01/27 10:13:31;;;;;;;14.85;7.82;;;;;;;5.85;100.00;102955.00;4997163;28;20045;-83
2023/01/27 10:16:32;;;;;;;15.23;7.10;;;;;;;5.91;100.00;102955.47;5013394;28;20025;-83
2023/01/27 10:19:41;;;;;;;17.50;5.28;;;;;;;5.94;100.00;102944.63;4983609;28;20499;-83
2023/01/27 10:22:29;;;;;;;16.08;6.53;;;;;;;6.04;100.00;102955.63;5013168;28;20038;-83
2023/01/27 10:25:13;;;;;;;9.73;3.03;;;;;;;6.12;100.00;102958.69;5013071;28;20427;-84
2023/01/27 10:27:46;;;;;;;13.02;3.10;;;;;;;6.09;100.00;102920.66;5012978;28;20026;-83
2023/01/27 10:30:23;;;;;;;10.18;4.03;;;;;;;6.33;100.00;102951.19;5013168;28;20033;-83
2023/01/27 10:32:59;;;;;;;8.43;4.40;;;;;;;6.37;100.00;102946.50;5012937;28;20037;-83
2023/01/27 10:35:56;;;;;;;12.15;4.93;;;;;;;6.43;99.75;102951.50;5029095;28;20037;-85
2023/01/27 10:38:33;;;;;;;27.55;11.63;;;;;;;6.47;99.78;102928.09;5012507;28;20038;-84
2023/01/27 10:41:17;;;;;;;27.23;12.43;;;;;;;6.69;99.27;102939.13;5012964;28;20610;-85
2023/01/27 10:43:59;;;;;;;12.63;6.05;;;;;;;6.83;98.00;102940.97;4996369;28;20033;-84
2023/01/27 10:46:35;;;;;;;11.40;5.55;;;;;;;6.97;97.71;102935.56;5012785;28;20026;-83
2023/01/27 10:49:07;;;;;;;11.18;6.03;;;;;;;7.09;96.22;102935.72;5012293;28;20140;-83
2023/01/27 10:51:38;;;;;;;10.27;5.22;;;;;;;7.23;96.59;102941.91;5012936;28;20045;-84
2023/01/27 10:54:10;;;;;;;10.73;3.33;;;;;;;7.23;95.08;102936.56;5012699;28;20395;-85
2023/01/27 10:56:49;;;;;;;7.37;3.07;;;;;;;7.25;92.60;102939.13;4996226;28;20034;-83
2023/01/27 10:59:39;;;;;;;9.43;4.38;;;;;;;7.32;92.54;102945.78;5010759;28;20029;-84
2023/01/27 11:02:15;;;;;;;6.68;3.22;;;;;;;7.44;91.79;102938.78;4996137;28;20026;-82
2023/01/27 11:04:45;;;;;;;13.32;6.55;;;;;;;7.79;90.59;102933.72;5028870;28;20084;-82
2023/01/27 11:07:21;;;;;;;11.00;4.90;;;;;;;8.09;87.66;102932.59;5012239;28;20117;-82
2023/01/27 11:10:09;;;;;;;11.70;4.38;;;;;;;8.23;86.23;102937.84;4979326;28;20381;-82
2023/01/27 11:12:38;;;;;;;5.85;3.90;;;;;;;8.36;84.67;102930.66;4980635;28;20092;-83
2023/01/27 11:15:27;;;;;;;7.25;2.97;;;;;;;8.66;83.82;102934.84;4964233;28;20392;-82
2023/01/27 11:18:16;;;;;;;7.72;3.15;;;;;;;8.77;82.00;102940.28;4980323;28;20507;-82
2023/01/27 11:20:45;;;;;;;8.23;2.90;;;;;;;8.69;80.88;102931.09;4980536;28;20029;-82
2023/01/27 11:23:16;;;;;;;14.68;4.43;;;;;;;8.59;80.81;102936.25;4996687;28;20034;-82
2023/01/27 11:26:08;;;;;;;7.22;3.45;;;;;;;8.55;80.69;102924.88;4996602;28;20125;-82
2023/01/27 11:29:00;;;;;;;9.02;3.55;;;;;;;8.59;80.59;102920.16;5011630;28;20030;-82
2023/01/27 11:31:31;;;;;;;13.73;4.47;;;;;;;8.71;80.46;102927.31;4982505;28;20072;-82
2023/01/27 11:34:05;;;;;;;15.20;4.60;;;;;;;8.94;79.45;102922.09;5016684;28;20030;-82
2023/01/27 11:36:32;;;;;;;10.77;4.80;;;;;;;9.24;77.81;102914.47;4999820;28;20388;-82
2023/01/27 11:39:03;;;;;;;9.80;3.50;;;;;;;9.52;75.05;102909.72;4999957;28;20473;-82
2023/01/27 11:41:32;;;;;;;11.65;3.35;;;;;;;9.61;72.96;102916.25;5000509;28;20036;-83
2023/01/27 11:44:03;;;;;;;8.68;3.35;;;;;;;9.56;71.17;102892.41;5015949;28;20392;-83
2023/01/27 11:46:31;;;;;;;10.07;2.83;;;;;;;9.58;70.75;102900.31;4999964;28;20040;-82
2023/01/27 11:48:57;;;;;;;6.72;2.67;;;;;;;9.66;70.09;102908.69;5016023;28;20037;-82
2023/01/27 11:51:27;;;;;;;10.07;2.80;;;;;;;9.79;71.79;102912.16;5000181;28;20041;-82
2023/01/27 11:54:19;;;;;;;7.10;1.70;;;;;;;9.79;69.80;102904.09;5016862;28;20053;-82
2023/01/27 11:56:49;;;;;;;8.65;1.73;;;;;;;9.86;68.44;102910.69;5015740;28;20399;-82
2023/01/27 11:59:22;;;;;;;11.60;2.42;;;;;;;9.88;64.56;102902.50;5016013;28;20044;-83
2023/01/27 12:01:58;;;;;;;13.55;2.25;;;;;;;9.85;63.99;102900.91;5015917;28;20030;-82
2023/01/27 12:04:38;;;;;;;11.40;2.03;;;;;;;9.81;63.29;102903.94;4999744;28;20088;-81
2023/01/27 12:07:09;;;;;;;9.65;1.52;;;;;;;9.83;63.72;102894.78;4999768;28;20649;-82
2023/01/27 12:09:37;;;;;;;7.53;2.05;;;;;;;9.97;63.64;102891.03;5016675;28;20114;-82
2023/01/27 12:12:10;;;;;;;8.15;1.88;;;;;;;10.08;62.76;102874.94;4983033;28;20057;-82
2023/01/27 12:14:36;;;;;;;5.53;1.35;;;;;;;10.13;61.66;102891.56;5015744;28;20034;-82